Time;durP1;ratioP1;P1;durP2;ratioP2;P2;SDS_P1;SDS_P2;PMS_P1;PMS_P2;Temp;Humidity;BMP_temperature;BMP_pressure;BME280_temperature;BME280_humidity;BME280_pressure;Samples;Min_cycle;Max_cycle;Signal;HPM_P1;HPM_P2
2021/09/17 13:13:13;;;;;;;3.75;1.10;;;23.80;56.10;;;;;;5139239;27;20406;-75
2021/09/17 13:15:40;;;;;;;3.15;1.20;;;24.10;61.20;;;;;;5110396;28;20031;-75
2021/09/17 13:18:07;;;;;;;1.70;1.10;;;24.90;58.00;;;;;;5110743;28;20027;-76
2021/09/17 13:20:37;;;;;;;1.98;1.30;;;25.60;56.70;;;;;;5109520;28;20777;-75
2021/09/17 13:23:04;;;;;;;1.60;1.25;;;26.20;56.50;;;;;;5111076;28;20537;-77
2021/09/17 13:25:31;;;;;;;1.73;1.45;;;26.60;56.40;;;;;;5111187;28;20030;-76
2021/09/17 13:27:58;;;;;;;4.30;1.33;;;27.40;56.60;;;;;;5128003;28;20028;-76
2021/09/17 13:30:29;;;;;;;1.10;0.93;;;28.00;52.50;;;;;;5108678;28;20035;-76
2021/09/17 13:32:55;;;;;;;1.58;0.98;;;28.20;50.70;;;;;;5108847;28;20059;-77
2021/09/17 13:35:27;;;;;;;3.42;1.15;;;28.50;49.20;;;;;;5103225;28;20056;-78
2021/09/17 13:37:53;;;;;;;;;;;28.00;48.50;;;;;;5097696;28;20474;-74
2021/09/17 13:40:21;;;;;;;3.20;1.40;;;27.50;46.80;;;;;;5102981;28;19959;-74
2021/09/17 13:42:47;;;;;;;1.17;0.90;;;27.40;51.00;;;;;;5128883;28;20039;-75
2021/09/17 13:45:15;;;;;;;2.20;1.08;;;27.10;50.60;;;;;;5107388;28;20027;-75
2021/09/17 13:47:41;;;;;;;3.15;1.20;;;27.00;50.80;;;;;;5100031;28;20024;-74
2021/09/17 13:50:09;;;;;;;1.67;1.10;;;26.80;49.90;;;;;;5096421;28;20023;-75
2021/09/17 13:52:36;;;;;;;2.08;1.50;;;26.60;50.70;;;;;;5108384;28;20503;-75
2021/09/17 13:55:02;;;;;;;1.60;1.10;;;26.30;50.90;;;;;;5124500;28;20019;-75
2021/09/17 13:57:28;;;;;;;2.05;1.10;;;26.00;52.90;;;;;;5127406;28;20127;-76
2021/09/17 13:59:54;;;;;;;2.50;1.23;;;25.80;52.80;;;;;;5109596;28;20464;-75
2021/09/17 14:02:19;;;;;;;1.50;1.17;;;25.60;53.70;;;;;;5105012;28;20126;-75
2021/09/17 14:04:46;;;;;;;1.48;1.10;;;25.40;54.00;;;;;;5107594;28;20027;-75
2021/09/17 14:07:13;;;;;;;3.70;1.08;;;25.30;54.70;;;;;;5105236;28;20157;-76
2021/09/17 14:09:39;;;;;;;1.42;1.20;;;25.00;54.90;;;;;;5107326;28;20023;-76
2021/09/17 14:12:05;;;;;;;1.35;1.00;;;24.90;55.10;;;;;;5106088;28;20135;-76
2021/09/17 14:14:31;;;;;;;1.60;0.88;;;24.70;55.30;;;;;;5094021;28;20119;-76
2021/09/17 14:16:57;;;;;;;1.77;1.20;;;24.50;53.50;;;;;;5095300;28;20020;-76
2021/09/17 14:19:22;;;;;;;1.10;0.90;;;24.30;55.50;;;;;;5092086;28;20472;-76
2021/09/17 14:21:48;;;;;;;2.97;0.82;;;24.20;54.10;;;;;;5100796;28;20038;-76
2021/09/17 14:24:14;;;;;;;1.92;1.10;;;23.90;54.20;;;;;;5082786;28;20389;-76
2021/09/17 14:26:41;;;;;;;2.50;1.40;;;23.80;55.60;;;;;;5073894;28;20035;-75
2021/09/17 14:29:08;;;;;;;1.85;1.38;;;23.60;55.10;;;;;;5091905;28;20028;-75
2021/09/17 14:31:34;;;;;;;1.02;0.93;;;23.40;56.60;;;;;;5090789;28;20028;-76
2021/09/17 14:34:00;;;;;;;1.42;1.05;;;23.50;55.20;;;;;;5093008;28;20031;-75
2021/09/17 14:36:26;;;;;;;1.25;1.13;;;23.40;55.30;;;;;;5092489;28;20511;-76
2021/09/17 14:38:52;;;;;;;1.98;1.02;;;23.40;56.80;;;;;;5093124;28;20032;-75
2021/09/17 14:41:18;;;;;;;2.92;0.90;;;23.20;56.10;;;;;;5086925;28;20119;-76
2021/09/17 14:43:44;;;;;;;2.05;1.42;;;23.10;56.80;;;;;;5074970;28;20465;-76
2021/09/17 14:46:10;;;;;;;2.42;1.38;;;23.10;57.50;;;;;;5114866;27;20024;-75
2021/09/17 14:48:36;;;;;;;1.50;1.02;;;23.00;57.70;;;;;;5092819;28;20258;-76
2021/09/17 14:51:03;;;;;;;3.88;1.25;;;22.80;57.80;;;;;;5091458;28;20028;-75
2021/09/17 14:55:53;;;;;;;1.40;1.05;;;22.70;57.90;;;;;;5130116;27;20389;-74
2021/09/17 14:58:21;;;;;;;1.25;1.00;;;22.70;59.90;;;;;;5129279;28;20390;-76
2021/09/17 15:00:48;;;;;;;2.92;1.20;;;22.70;59.40;;;;;;5114687;28;20047;-75
2021/09/17 15:03:29;;;;;;;2.97;1.17;;;22.70;59.20;;;;;;5113012;28;20042;-75
2021/09/17 15:05:57;;;;;;;2.33;2.13;;;22.60;59.40;;;;;;5114181;28;20023;-76
2021/09/17 15:08:23;;;;;;;3.45;2.60;;;22.60;59.60;;;;;;5107806;28;20039;-76
2021/09/17 15:10:49;;;;;;;1.73;1.55;;;22.50;59.80;;;;;;5107506;28;20069;-75
2021/09/17 15:13:15;;;;;;;2.60;1.40;;;22.50;60.20;;;;;;5107813;28;20032;-75
2021/09/17 15:15:41;;;;;;;2.30;1.20;;;22.50;59.70;;;;;;5107983;28;20127;-75
2021/09/17 15:18:06;;;;;;;4.25;1.25;;;22.50;61.30;;;;;;5109093;28;20028;-76
2021/09/17 15:20:32;;;;;;;1.60;1.30;;;22.50;60.10;;;;;;5108331;28;20073;-75
2021/09/17 15:22:58;;;;;;;2.60;1.48;;;22.50;60.70;;;;;;5108719;28;20456;-75
2021/09/17 15:25:24;;;;;;;2.30;1.17;;;22.50;58.90;;;;;;5109269;28;20032;-75
2021/09/17 15:27:49;;;;;;;2.10;1.40;;;22.40;58.70;;;;;;5108750;28;20373;-75
2021/09/17 15:30:15;;;;;;;3.17;1.45;;;22.40;59.40;;;;;;5108637;28;20027;-74
2021/09/17 15:32:41;;;;;;;1.27;1.10;;;22.30;59.10;;;;;;5107909;28;20024;-75
2021/09/17 15:35:07;;;;;;;3.85;1.60;;;22.30;60.30;;;;;;5108310;28;20032;-75
2021/09/17 15:37:33;;;;;;;1.25;1.10;;;22.20;59.90;;;;;;5109345;28;20039;-75
2021/09/17 15:39:58;;;;;;;3.15;1.30;;;22.20;59.50;;;;;;5109761;28;20020;-75
2021/09/17 15:42:24;;;;;;;1.80;1.20;;;22.20;59.70;;;;;;5108984;28;20379;-75
2021/09/17 15:44:51;;;;;;;1.85;1.23;;;22.10;60.90;;;;;;5109189;28;20472;-75
2021/09/17 15:47:18;;;;;;;2.13;1.38;;;22.10;61.30;;;;;;5108480;28;20031;-75
2021/09/17 15:49:43;;;;;;;5.45;1.45;;;22.10;61.70;;;;;;5107580;28;20028;-75
2021/09/17 15:52:09;;;;;;;2.15;1.35;;;22.00;61.70;;;;;;5108335;28;20023;-75
2021/09/17 15:54:35;;;;;;;1.83;1.30;;;22.00;61.80;;;;;;5107166;28;20527;-75
2021/09/17 15:57:00;;;;;;;2.22;1.30;;;22.00;62.80;;;;;;5109461;28;20058;-75
2021/09/17 15:59:26;;;;;;;2.13;1.52;;;22.00;63.40;;;;;;5107669;28;20058;-75
2021/09/17 16:01:52;;;;;;;2.72;1.38;;;21.90;63.90;;;;;;5109431;28;20453;-75
2021/09/17 16:04:18;;;;;;;3.50;1.67;;;21.90;64.50;;;;;;5109146;28;20032;-74
2021/09/17 16:06:43;;;;;;;2.85;1.63;;;21.90;64.50;;;;;;5097755;28;20473;-75
2021/09/17 16:09:10;;;;;;;2.40;1.50;;;21.90;65.20;;;;;;5094418;28;20372;-75
2021/09/17 16:11:36;;;;;;;3.40;1.67;;;21.80;65.30;;;;;;5093994;28;20024;-76
2021/09/17 16:14:03;;;;;;;2.47;1.83;;;21.70;66.20;;;;;;5094429;28;20145;-75
2021/09/17 16:16:29;;;;;;;2.72;1.90;;;21.70;66.70;;;;;;5093780;28;20024;-74
2021/09/17 16:18:55;;;;;;;3.08;1.73;;;21.60;67.10;;;;;;5094152;28;20468;-74
2021/09/17 16:21:21;;;;;;;1.73;1.60;;;21.60;67.40;;;;;;5095254;28;20028;-76
2021/09/17 16:23:47;;;;;;;3.60;1.95;;;21.50;67.80;;;;;;5093971;28;20068;-74
2021/09/17 16:26:12;;;;;;;2.90;2.00;;;21.50;67.80;;;;;;5093767;28;20059;-74
2021/09/17 16:28:38;;;;;;;2.35;1.60;;;21.50;68.10;;;;;;5093005;28;20020;-75
2021/09/17 16:31:04;;;;;;;3.83;2.05;;;21.40;68.70;;;;;;5093698;28;20047;-73
2021/09/17 16:33:29;;;;;;;2.47;1.90;;;21.40;69.40;;;;;;5093205;28;20392;-75
2021/09/17 16:35:55;;;;;;;2.10;1.90;;;21.30;69.50;;;;;;5094638;28;20028;-74
2021/09/17 16:38:21;;;;;;;2.78;2.30;;;21.30;69.10;;;;;;5094539;28;20111;-73
2021/09/17 16:40:47;;;;;;;2.63;2.20;;;21.30;69.70;;;;;;5110084;28;20023;-75
2021/09/17 16:43:12;;;;;;;4.40;2.53;;;21.20;70.10;;;;;;5094369;28;20032;-75
2021/09/17 16:45:38;;;;;;;8.63;5.28;;;21.20;70.80;;;;;;5092588;28;20453;-75
2021/09/17 16:48:04;;;;;;;2.92;2.58;;;21.10;70.80;;;;;;5138652;27;20026;-73
2021/09/17 16:50:30;;;;;;;3.17;2.08;;;21.10;71.80;;;;;;5132154;27;20058;-74
2021/09/17 16:52:56;;;;;;;3.60;1.98;;;21.10;72.20;;;;;;5109784;28;20048;-74
2021/09/17 16:55:22;;;;;;;3.78;2.20;;;21.00;73.20;;;;;;5131831;27;20062;-73
2021/09/17 16:57:47;;;;;;;5.70;2.33;;;21.00;73.00;;;;;;5105770;28;20059;-74
2021/09/17 17:00:14;;;;;;;5.07;2.22;;;20.90;73.80;;;;;;5139841;27;20077;-73
2021/09/17 17:02:40;;;;;;;3.95;1.98;;;20.90;74.70;;;;;;5097360;28;20469;-74
2021/09/17 17:05:09;;;;;;;2.20;1.88;;;20.80;75.30;;;;;;5143721;27;20028;-74
2021/09/17 17:07:35;;;;;;;1.58;1.48;;;20.80;75.80;;;;;;5133690;27;20076;-74
2021/09/17 17:10:01;;;;;;;2.70;1.75;;;20.80;75.60;;;;;;5102165;28;20431;-74
2021/09/17 17:12:27;;;;;;;2.58;1.77;;;20.70;76.50;;;;;;5130049;27;20111;-73
2021/09/17 17:14:53;;;;;;;2.90;1.83;;;20.70;76.60;;;;;;5110547;28;20138;-73
2021/09/17 17:17:18;;;;;;;2.72;1.80;;;20.60;77.50;;;;;;5098300;28;20468;-75
2021/09/17 17:19:44;;;;;;;2.70;2.00;;;20.60;77.50;;;;;;5105075;28;20469;-74
2021/09/17 17:22:10;;;;;;;2.65;1.80;;;20.50;78.10;;;;;;5104663;28;20027;-73
2021/09/17 17:24:37;;;;;;;4.43;1.92;;;20.50;79.10;;;;;;5096223;28;20070;-73
2021/09/17 17:27:07;;;;;;;5.25;1.98;;;20.40;79.80;;;;;;5110379;28;20035;-73
2021/09/17 17:29:34;;;;;;;3.17;2.00;;;20.40;80.60;;;;;;5132862;27;20027;-73
2021/09/17 17:32:00;;;;;;;4.20;2.25;;;20.30;81.10;;;;;;5102017;28;20031;-73
2021/09/17 17:34:26;;;;;;;3.60;2.10;;;20.20;81.90;;;;;;5140370;27;20031;-73
2021/09/17 17:36:52;;;;;;;2.80;1.88;;;20.10;83.10;;;;;;5095492;28;20032;-73
2021/09/17 17:39:18;;;;;;;3.50;1.90;;;20.10;82.90;;;;;;5147121;27;20031;-72
2021/09/17 17:41:43;;;;;;;5.93;2.45;;;20.00;83.30;;;;;;5104416;28;20241;-73
2021/09/17 17:44:09;;;;;;;5.03;2.20;;;19.90;84.00;;;;;;5105201;28;20484;-72
2021/09/17 17:46:35;;;;;;;3.60;1.92;;;19.80;84.60;;;;;;5097848;28;20028;-73
2021/09/17 17:49:00;;;;;;;3.22;2.35;;;19.80;84.70;;;;;;5109666;28;20424;-73
2021/09/17 17:51:28;;;;;;;3.35;2.35;;;19.70;85.40;;;;;;5097044;28;20023;-76
2021/09/17 17:53:54;;;;;;;5.10;2.20;;;19.60;86.70;;;;;;5103164;28;20152;-76
2021/09/17 17:56:19;;;;;;;3.42;2.05;;;19.50;86.60;;;;;;5093308;28;20103;-74
2021/09/17 17:58:45;;;;;;;2.65;2.28;;;19.40;86.70;;;;;;5142564;27;20066;-75
2021/09/17 18:01:11;;;;;;;2.30;2.10;;;19.40;87.40;;;;;;5129867;27;20437;-74
2021/09/17 18:03:37;;;;;;;6.57;2.60;;;19.30;87.70;;;;;;5105726;28;20023;-75
2021/09/17 18:06:02;;;;;;;2.15;1.90;;;19.20;88.40;;;;;;5137120;27;20023;-77
2021/09/17 18:08:28;;;;;;;4.25;2.38;;;19.20;88.10;;;;;;5131315;27;20449;-76
2021/09/17 18:10:54;;;;;;;2.75;2.10;;;19.10;88.60;;;;;;5109416;28;20100;-74
2021/09/17 18:13:20;;;;;;;3.80;2.30;;;19.00;89.00;;;;;;5130643;27;20502;-77
2021/09/17 18:15:46;;;;;;;3.53;2.28;;;19.00;89.60;;;;;;5102790;28;20036;-73
2021/09/17 18:18:12;;;;;;;2.30;2.10;;;18.90;90.00;;;;;;5105284;28;20023;-73
2021/09/17 18:20:38;;;;;;;2.50;2.10;;;18.90;90.00;;;;;;5111300;28;20052;-73
2021/09/17 18:23:05;;;;;;;3.50;2.17;;;18.80;90.30;;;;;;5094912;28;20035;-73
2021/09/17 18:25:31;;;;;;;5.20;2.20;;;18.80;90.20;;;;;;5104363;28;20126;-73
2021/09/17 18:27:57;;;;;;;2.08;1.90;;;18.80;90.40;;;;;;5102864;28;20047;-73
2021/09/17 18:30:23;;;;;;;4.15;2.20;;;18.80;90.20;;;;;;5131502;27;20480;-73
2021/09/17 18:32:49;;;;;;;2.58;2.08;;;18.70;90.30;;;;;;5109097;28;20038;-73
2021/09/17 18:35:15;;;;;;;4.75;2.28;;;18.70;90.30;;;;;;5107256;28;20042;-73
2021/09/17 18:37:40;;;;;;;2.30;1.98;;;18.60;90.50;;;;;;5099559;28;20468;-73
2021/09/17 18:40:08;;;;;;;2.40;1.95;;;18.60;90.70;;;;;;5112769;28;20028;-74
2021/09/17 18:42:34;;;;;;;3.35;2.40;;;18.50;90.80;;;;;;5133455;27;20055;-75
2021/09/17 18:45:00;;;;;;;2.80;2.13;;;18.50;90.90;;;;;;5109509;28;20023;-75
2021/09/17 18:47:27;;;;;;;3.45;2.15;;;18.40;90.90;;;;;;5106953;28;20445;-74
2021/09/17 18:49:53;;;;;;;4.35;2.60;;;18.40;91.00;;;;;;5102007;28;20023;-74
2021/09/17 18:52:19;;;;;;;4.78;2.08;;;18.40;91.20;;;;;;5099607;28;20028;-74
2021/09/17 18:54:44;;;;;;;2.20;1.85;;;18.30;91.30;;;;;;5108017;28;20048;-76
2021/09/17 18:57:10;;;;;;;2.38;1.92;;;18.30;91.40;;;;;;5094496;28;20019;-75
2021/09/17 18:59:36;;;;;;;2.53;2.20;;;18.30;91.40;;;;;;5105093;28;20028;-75
2021/09/17 19:02:01;;;;;;;2.85;2.28;;;18.20;91.60;;;;;;5092368;28;20024;-75
2021/09/17 19:04:27;;;;;;;2.78;2.22;;;18.20;91.50;;;;;;5139637;27;20057;-77
2021/09/17 19:06:53;;;;;;;4.03;2.08;;;18.20;91.50;;;;;;5093184;28;20031;-75
2021/09/17 19:09:18;;;;;;;3.17;2.20;;;18.10;91.60;;;;;;5125190;28;20429;-75
2021/09/17 19:11:45;;;;;;;3.45;2.28;;;18.10;91.50;;;;;;5124272;28;20047;-75
2021/09/17 19:14:18;;;;;;;3.38;2.33;;;18.00;91.80;;;;;;5102654;28;20119;-74
2021/09/17 19:16:44;;;;;;;3.13;2.78;;;17.80;92.20;;;;;;5111784;28;20464;-75
2021/09/17 19:19:09;;;;;;;4.32;2.50;;;17.80;92.60;;;;;;5095346;28;20034;-74
2021/09/17 19:21:35;;;;;;;3.85;2.72;;;17.60;93.00;;;;;;5104822;28;20017;-75
2021/09/17 19:24:01;;;;;;;6.25;2.55;;;17.60;93.00;;;;;;5101516;28;20035;-74
2021/09/17 19:26:27;;;;;;;5.63;3.05;;;17.50;93.20;;;;;;5096602;28;20438;-75
2021/09/17 19:28:52;;;;;;;3.35;3.03;;;17.50;93.20;;;;;;5106959;28;20024;-75
2021/09/17 19:31:18;;;;;;;4.05;3.03;;;17.50;93.20;;;;;;5129640;27;20023;-74
2021/09/17 19:33:44;;;;;;;2.72;2.42;;;17.50;93.40;;;;;;5101950;28;20388;-74
2021/09/17 19:36:09;;;;;;;5.05;2.92;;;17.60;93.30;;;;;;5124608;28;20031;-74
2021/09/17 19:38:35;;;;;;;3.47;2.50;;;17.50;93.30;;;;;;5140095;27;20080;-74
2021/09/17 19:41:01;;;;;;;5.00;2.97;;;17.40;93.40;;;;;;5096214;28;20027;-74
2021/09/17 19:43:27;;;;;;;3.92;2.90;;;17.40;93.60;;;;;;5102395;28;20083;-74
2021/09/17 19:45:53;;;;;;;5.28;2.75;;;17.30;93.60;;;;;;5103875;28;20058;-74
2021/09/17 19:48:18;;;;;;;4.80;2.95;;;17.30;93.70;;;;;;5108596;28;20028;-73
2021/09/17 19:50:44;;;;;;;5.15;3.00;;;17.20;93.90;;;;;;5098240;28;20072;-74
2021/09/17 19:53:14;;;;;;;4.22;2.90;;;17.10;94.10;;;;;;5132256;27;20031;-76
2021/09/17 19:55:41;;;;;;;4.60;3.08;;;17.10;94.10;;;;;;5106201;28;20160;-76
2021/09/17 19:58:07;;;;;;;7.13;4.18;;;17.10;94.60;;;;;;5140290;27;20019;-75
2021/09/17 20:00:32;;;;;;;4.13;2.92;;;17.10;94.50;;;;;;5133070;27;20495;-76
2021/09/17 20:02:58;;;;;;;3.80;2.92;;;17.00;94.30;;;;;;5097421;28;20058;-73
2021/09/17 20:05:24;;;;;;;3.42;2.80;;;17.00;94.50;;;;;;5115521;28;20063;-75
2021/09/17 20:07:49;;;;;;;5.63;3.22;;;17.00;94.60;;;;;;5104631;28;20190;-74
2021/09/17 20:10:15;;;;;;;7.38;3.25;;;17.10;94.60;;;;;;5095148;28;20078;-74
2021/09/17 20:12:42;;;;;;;4.88;3.03;;;17.10;94.40;;;;;;5127512;27;20515;-75
2021/09/17 20:15:08;;;;;;;4.25;3.42;;;17.20;94.30;;;;;;5115210;28;20039;-74
2021/09/17 20:17:34;;;;;;;4.72;3.10;;;17.10;94.20;;;;;;5107991;28;20116;-75
2021/09/17 20:20:00;;;;;;;6.07;3.30;;;17.10;94.30;;;;;;5105743;28;20468;-74
2021/09/17 20:22:27;;;;;;;4.85;3.05;;;17.00;94.40;;;;;;5134164;27;20380;-74
2021/09/17 20:24:53;;;;;;;6.35;3.35;;;17.00;94.40;;;;;;5145185;27;20035;-75
2021/09/17 20:27:19;;;;;;;3.75;2.85;;;16.90;94.70;;;;;;5109286;28;20020;-74
2021/09/17 20:29:46;;;;;;;3.50;2.80;;;16.90;94.70;;;;;;5093275;28;20593;-76
2021/09/17 20:32:12;;;;;;;4.03;3.10;;;16.80;94.90;;;;;;5106142;28;20032;-76
2021/09/17 20:37:29;;;;;;;5.88;3.20;;;16.80;95.00;;;;;;5085191;28;20052;-75
2021/09/17 20:39:56;;;;;;;5.40;3.35;;;16.80;95.10;;;;;;5137201;27;20123;-74
2021/09/17 20:42:22;;;;;;;4.70;3.20;;;16.70;95.10;;;;;;5131214;27;20119;-75
2021/09/17 20:44:47;;;;;;;4.00;3.45;;;16.70;95.20;;;;;;5093097;28;20425;-75
2021/09/17 20:47:13;;;;;;;5.10;3.67;;;16.60;95.30;;;;;;5109435;28;20043;-74
2021/09/17 20:49:40;;;;;;;4.55;3.13;;;16.60;95.20;;;;;;5126862;27;20047;-74
2021/09/17 20:52:06;;;;;;;6.65;3.20;;;16.60;95.30;;;;;;5127069;27;20028;-75
2021/09/17 20:54:32;;;;;;;4.10;3.05;;;16.60;95.40;;;;;;5142109;27;20043;-76
2021/09/17 20:56:58;;;;;;;5.65;3.03;;;16.60;95.40;;;;;;5096758;28;20084;-75
2021/09/17 20:59:25;;;;;;;5.13;3.15;;;16.60;95.20;;;;;;5113736;28;20024;-75
2021/09/17 21:01:52;;;;;;;6.03;2.80;;;16.60;95.20;;;;;;5103419;28;20028;-75
2021/09/17 21:04:17;;;;;;;7.40;3.05;;;16.60;95.20;;;;;;5107071;28;20027;-75
2021/09/17 21:06:43;;;;;;;5.65;2.83;;;16.50;95.40;;;;;;5095985;28;20384;-75
2021/09/17 21:09:09;;;;;;;3.42;2.85;;;16.50;95.30;;;;;;5113512;27;20080;-75
2021/09/17 21:11:35;;;;;;;6.47;3.05;;;16.50;95.20;;;;;;5106702;28;20016;-75
2021/09/17 21:14:01;;;;;;;7.82;3.10;;;16.50;95.30;;;;;;5104881;28;20035;-77
2021/09/17 21:16:27;;;;;;;7.43;3.10;;;16.40;95.20;;;;;;5100121;28;20373;-75
2021/09/17 21:18:53;;;;;;;6.80;3.00;;;16.50;95.30;;;;;;5093498;28;20333;-75
2021/09/17 21:21:18;;;;;;;4.95;3.10;;;16.40;95.30;;;;;;5147769;27;20084;-75
2021/09/17 21:23:44;;;;;;;4.80;3.20;;;16.40;95.30;;;;;;5112264;28;20034;-74
2021/09/17 21:26:10;;;;;;;6.95;3.65;;;16.40;95.40;;;;;;5101706;28;20028;-75
2021/09/17 21:28:36;;;;;;;5.43;3.50;;;16.40;95.40;;;;;;5141846;27;20027;-75
2021/09/17 21:31:02;;;;;;;7.88;3.28;;;16.40;95.20;;;;;;5096891;28;20028;-74
2021/09/17 21:33:28;;;;;;;4.70;3.60;;;16.40;95.20;;;;;;5112880;28;20028;-75
2021/09/17 21:35:53;;;;;;;4.55;3.47;;;16.40;95.10;;;;;;5103488;28;20068;-75
2021/09/17 21:38:19;;;;;;;4.20;3.60;;;16.40;95.10;;;;;;5140086;27;20030;-74
2021/09/17 21:40:45;;;;;;;3.67;3.00;;;16.50;95.10;;;;;;5095070;28;20487;-75
2021/09/17 21:43:10;;;;;;;5.90;4.30;;;16.50;95.10;;;;;;5099181;28;20475;-75
2021/09/17 21:45:36;;;;;;;5.65;3.70;;;16.50;94.90;;;;;;5138824;27;20028;-75
2021/09/17 21:48:02;;;;;;;5.90;3.30;;;16.40;94.90;;;;;;5093369;28;20082;-75
2021/09/17 21:50:28;;;;;;;5.78;3.45;;;16.30;94.90;;;;;;5107767;28;20480;-75
2021/09/17 21:52:53;;;;;;;5.28;3.30;;;16.30;95.10;;;;;;5094793;28;20548;-75
2021/09/17 21:55:19;;;;;;;4.63;3.42;;;16.30;95.10;;;;;;5092345;28;20044;-75
2021/09/17 21:57:44;;;;;;;4.03;3.22;;;16.30;95.00;;;;;;5101338;28;20026;-75
2021/09/17 22:00:12;;;;;;;3.40;3.10;;;16.30;95.10;;;;;;5100248;28;20059;-75
2021/09/17 22:02:37;;;;;;;4.70;3.20;;;16.20;95.10;;;;;;5107524;28;20019;-75
2021/09/17 22:05:05;;;;;;;5.65;3.30;;;16.20;95.20;;;;;;5091906;28;20032;-75
2021/09/17 22:07:31;;;;;;;7.28;3.42;;;16.20;95.30;;;;;;5132650;27;20114;-74
2021/09/17 22:09:57;;;;;;;4.32;3.40;;;16.10;95.50;;;;;;5101402;28;20032;-75
2021/09/17 22:12:22;;;;;;;3.90;3.35;;;16.10;95.50;;;;;;5125700;27;20031;-74
2021/09/17 22:14:48;;;;;;;5.13;2.92;;;16.00;95.60;;;;;;5125737;27;20032;-77
2021/09/17 22:17:14;;;;;;;6.53;3.33;;;16.00;95.60;;;;;;5146626;27;20032;-75
2021/09/17 22:19:39;;;;;;;4.35;3.22;;;16.10;95.60;;;;;;5146109;27;20023;-75
2021/09/17 22:22:05;;;;;;;7.38;3.30;;;16.00;95.70;;;;;;5100754;28;20115;-75
2021/09/17 22:24:32;;;;;;;5.18;3.60;;;16.00;95.70;;;;;;5140702;27;20059;-75
2021/09/17 22:26:58;;;;;;;3.53;3.10;;;15.90;95.70;;;;;;5094291;28;20063;-75
2021/09/17 22:29:24;;;;;;;4.18;3.28;;;15.80;95.80;;;;;;5107650;28;20495;-75
2021/09/17 22:31:50;;;;;;;5.47;3.15;;;15.80;95.80;;;;;;5134549;27;20096;-75
2021/09/17 22:34:15;;;;;;;4.70;3.20;;;15.80;95.70;;;;;;5112092;28;20036;-77
2021/09/17 22:36:41;;;;;;;4.70;3.00;;;15.80;95.80;;;;;;5093562;28;20031;-77
2021/09/17 22:39:07;;;;;;;5.50;2.90;;;15.80;95.80;;;;;;5095915;28;20020;-76
2021/09/17 22:41:33;;;;;;;6.47;3.00;;;15.70;96.00;;;;;;5105059;28;20114;-76
2021/09/17 22:43:58;;;;;;;4.53;3.08;;;15.60;96.00;;;;;;5102559;28;20096;-75
2021/09/17 22:46:24;;;;;;;5.78;3.60;;;15.60;96.10;;;;;;5098895;28;20484;-75
2021/09/17 22:48:49;;;;;;;5.88;3.50;;;15.60;96.20;;;;;;5124236;27;20116;-75
2021/09/17 22:51:15;;;;;;;4.13;3.20;;;15.50;96.30;;;;;;5096408;28;20023;-75
2021/09/17 22:53:41;;;;;;;5.25;3.05;;;15.40;96.60;;;;;;5101846;28;20032;-75
2021/09/17 22:56:07;;;;;;;5.20;3.60;;;15.40;96.60;;;;;;5136746;27;20037;-74
2021/09/17 22:58:32;;;;;;;6.30;3.22;;;15.40;96.70;;;;;;5112690;28;20376;-75
2021/09/17 23:00:58;;;;;;;5.68;3.40;;;15.40;96.60;;;;;;5108569;28;20321;-75
2021/09/17 23:03:24;;;;;;;5.28;3.60;;;15.40;96.60;;;;;;5096025;28;20464;-75
2021/09/17 23:05:49;;;;;;;4.85;2.95;;;15.30;96.50;;;;;;5101230;28;20039;-75
2021/09/17 23:08:15;;;;;;;4.13;2.95;;;15.30;96.50;;;;;;5091545;28;20099;-74
2021/09/17 23:10:41;;;;;;;5.75;3.38;;;15.30;96.40;;;;;;5140872;27;20054;-76
2021/09/17 23:13:06;;;;;;;5.43;2.97;;;15.40;96.20;;;;;;5093814;28;20148;-75
2021/09/17 23:15:33;;;;;;;5.78;3.38;;;15.40;96.00;;;;;;5105698;28;20111;-75
2021/09/17 23:17:59;;;;;;;5.10;2.90;;;15.30;96.00;;;;;;5105075;28;20030;-75
2021/09/17 23:20:25;;;;;;;4.07;2.55;;;15.30;95.90;;;;;;5101464;28;20358;-75
2021/09/17 23:22:51;;;;;;;3.63;2.67;;;15.30;95.60;;;;;;5112200;28;20513;-75
2021/09/17 23:25:16;;;;;;;5.22;2.90;;;15.30;95.40;;;;;;5112193;28;20050;-74
2021/09/17 23:27:42;;;;;;;2.90;2.70;;;15.20;95.40;;;;;;5136519;27;20131;-75
2021/09/17 23:30:09;;;;;;;5.07;2.90;;;15.20;95.50;;;;;;5137412;27;20035;-75
2021/09/17 23:32:35;;;;;;;2.85;2.50;;;15.20;95.50;;;;;;5144231;27;20125;-75
2021/09/17 23:35:01;;;;;;;4.60;2.58;;;15.20;95.40;;;;;;5097297;28;20068;-75
2021/09/17 23:37:27;;;;;;;2.85;2.47;;;15.10;95.30;;;;;;5109021;28;20047;-75
2021/09/17 23:39:52;;;;;;;3.15;2.60;;;15.10;95.30;;;;;;5103863;28;20031;-75
2021/09/17 23:42:18;;;;;;;4.38;2.63;;;15.10;95.30;;;;;;5101561;28;20101;-75
2021/09/17 23:44:44;;;;;;;5.13;2.55;;;15.00;95.30;;;;;;5095358;28;20044;-76
2021/09/17 23:47:10;;;;;;;4.47;2.75;;;15.00;95.50;;;;;;5149241;27;20023;-75
2021/09/17 23:49:35;;;;;;;3.30;2.88;;;15.10;95.40;;;;;;5108508;28;20453;-75
2021/09/17 23:52:01;;;;;;;4.38;2.80;;;15.10;95.10;;;;;;5138753;27;20035;-75
2021/09/17 23:54:27;;;;;;;3.17;2.60;;;15.10;95.10;;;;;;5133878;27;20424;-75
2021/09/17 23:56:52;;;;;;;4.95;2.78;;;15.10;95.10;;;;;;5111712;28;20391;-75
2021/09/17 23:59:18;;;;;;;3.25;2.90;;;15.10;95.00;;;;;;5133455;27;20102;-75
